This is the latest recevied weather packets stored in our database for station/object DC4XK-10. If no packets are shown the sender has not sent any weather packets the latest 10 day(s).
| Time | Temp. | Humidity | Pressure | Rain* | Wind** | Luminosity | Snow |
|---|---|---|---|---|---|---|---|
| 1778069931 | 16.11° C | 53% | 1007.4 hPa | 0 mm | 0 m/s | - | - |
| 1778069334 | 15.56° C | 51% | 1007.3 hPa | 0 mm | 1.79 m/s, 331° | - | - |
| 1778068731 | 15.56° C | 52% | 1007.3 hPa | 0 mm | 0 m/s | - | - |
| 1778067534 | 15.56° C | 50% | 1007.5 hPa | 0 mm | 0 m/s | - | - |
| 1778066331 | 15° C | 51% | 1007.2 hPa | 0 mm | 2.24 m/s, 68° | - | - |
| 1778063931 | 14.44° C | 51% | 1007.1 hPa | 0 mm | 0 m/s | - | - |
| 1778063330 | 14.44° C | 50% | 1007.3 hPa | 0 mm | 1.34 m/s, 356° | - | - |
| 1778062731 | 14.44° C | 52% | 1007.1 hPa | 0 mm | 0.89 m/s, 29° | - | - |
| 1778061531 | 14.44° C | 52% | 1007.3 hPa | 0 mm | 0 m/s | - | - |
| 1778060331 | 13.33° C | 54% | 1007 hPa | 0 mm | 0.45 m/s, 84° | - | - |
| 1778059133 | 12.78° C | 58% | 1007.3 hPa | 0 mm | 0 m/s | - | - |
| 1778057931 | 12.78° C | 57% | 1007.3 hPa | 0 mm | 0.89 m/s, 1° | - | - |
| 1778056731 | 12.78° C | 53% | 1007.3 hPa | 0 mm | 0.45 m/s, 41° | - | - |
| 1778056130 | 12.78° C | 54% | 1007.3 hPa | 0 mm | 0.45 m/s, 39° | - | - |
| 1778055533 | 12.78° C | 54% | 1007.4 hPa | 0 mm | 0 m/s | - | - |
| 1778054931 | 12.22° C | 54% | 1007.2 hPa | 0 mm | 0 m/s | - | - |
| 1778054331 | 12.22° C | 56% | 1007.2 hPa | 0 mm | 0 m/s | - | - |
| 1778053131 | 11.11° C | 61% | 1007.3 hPa | 0 mm | 0.89 m/s, 312° | - | - |
| 1778052531 | 11.11° C | 64% | 1007.5 hPa | 0 mm | 0 m/s | - | - |
| 1778051931 | 10.56° C | 64% | 1007.5 hPa | 0 mm | 0 m/s | - | - |
| 1778051330 | 10° C | 65% | 1007.4 hPa | 0 mm | 0 m/s | - | - |
| 1778050731 | 10° C | 65% | 1007.3 hPa | 0 mm | 1.34 m/s, 341° | - | - |
| 1778050131 | 9.44° C | 66% | 1007.3 hPa | 0 mm | 0 m/s | - | - |
| 1778049531 | 9.44° C | 67% | 1007.6 hPa | 0 mm | 0 m/s | - | - |
| 1778048931 | 8.89° C | 68% | 1007.5 hPa | 0 mm | 0.45 m/s, 88° | - | - |
* Rain latest hour (hover to see other rain measurements)
** Current wind speed in m/s (hover to see current wind gust speed)